sensor_id;sensor_type;location;lat;lon;timestamp;P1;durP1;ratioP1;P2;durP2;ratioP2
21661;SDS011;10992;48.170;8.596;2023-09-12T00:01:20;13.73;;;8.13;;
21661;SDS011;10992;48.170;8.596;2023-09-12T00:03:47;15.32;;;9.43;;
21661;SDS011;10992;48.170;8.596;2023-09-12T00:06:14;17.27;;;9.68;;
21661;SDS011;10992;48.170;8.596;2023-09-12T00:08:42;10.48;;;8.13;;
21661;SDS011;10992;48.170;8.596;2023-09-12T00:11:09;15.00;;;8.88;;
21661;SDS011;10992;48.170;8.596;2023-09-12T00:13:38;12.75;;;8.80;;
21661;SDS011;10992;48.170;8.596;2023-09-12T00:16:06;11.70;;;8.48;;
21661;SDS011;10992;48.170;8.596;2023-09-12T00:18:37;15.38;;;9.43;;
21661;SDS011;10992;48.170;8.596;2023-09-12T00:21:05;11.57;;;9.05;;
21661;SDS011;10992;48.170;8.596;2023-09-12T00:23:32;12.40;;;8.63;;
21661;SDS011;10992;48.170;8.596;2023-09-12T00:25:59;15.02;;;8.52;;
21661;SDS011;10992;48.170;8.596;2023-09-12T00:28:26;18.27;;;8.43;;
21661;SDS011;10992;48.170;8.596;2023-09-12T00:30:54;11.15;;;8.57;;
21661;SDS011;10992;48.170;8.596;2023-09-12T00:33:21;13.50;;;9.00;;
21661;SDS011;10992;48.170;8.596;2023-09-12T00:35:50;12.55;;;8.35;;
21661;SDS011;10992;48.170;8.596;2023-09-12T00:38:17;10.63;;;8.82;;
21661;SDS011;10992;48.170;8.596;2023-09-12T00:40:44;10.25;;;8.57;;
21661;SDS011;10992;48.170;8.596;2023-09-12T00:43:11;13.70;;;9.05;;
21661;SDS011;10992;48.170;8.596;2023-09-12T00:45:38;11.65;;;8.73;;
21661;SDS011;10992;48.170;8.596;2023-09-12T00:48:05;14.18;;;9.65;;
21661;SDS011;10992;48.170;8.596;2023-09-12T00:50:33;9.88;;;8.52;;
21661;SDS011;10992;48.170;8.596;2023-09-12T00:53:01;14.63;;;9.52;;
21661;SDS011;10992;48.170;8.596;2023-09-12T00:55:29;16.95;;;9.73;;
21661;SDS011;10992;48.170;8.596;2023-09-12T00:57:58;12.68;;;9.10;;
21661;SDS011;10992;48.170;8.596;2023-09-12T01:00:26;13.60;;;9.52;;
21661;SDS011;10992;48.170;8.596;2023-09-12T01:02:56;13.35;;;9.13;;
21661;SDS011;10992;48.170;8.596;2023-09-12T01:05:24;13.75;;;9.70;;
21661;SDS011;10992;48.170;8.596;2023-09-12T01:07:53;12.38;;;9.50;;
21661;SDS011;10992;48.170;8.596;2023-09-12T01:10:20;11.88;;;9.45;;
21661;SDS011;10992;48.170;8.596;2023-09-12T01:12:47;14.30;;;9.70;;
21661;SDS011;10992;48.170;8.596;2023-09-12T01:15:14;16.77;;;10.05;;
21661;SDS011;10992;48.170;8.596;2023-09-12T01:17:42;13.57;;;9.27;;
21661;SDS011;10992;48.170;8.596;2023-09-12T01:20:11;15.18;;;10.18;;
21661;SDS011;10992;48.170;8.596;2023-09-12T01:26:07;13.55;;;9.77;;
21661;SDS011;10992;48.170;8.596;2023-09-12T01:28:40;14.85;;;9.13;;
21661;SDS011;10992;48.170;8.596;2023-09-12T01:31:10;13.27;;;9.75;;
21661;SDS011;10992;48.170;8.596;2023-09-12T01:33:39;14.32;;;8.88;;
21661;SDS011;10992;48.170;8.596;2023-09-12T01:36:08;15.82;;;10.00;;
21661;SDS011;10992;48.170;8.596;2023-09-12T01:38:36;11.35;;;9.93;;
21661;SDS011;10992;48.170;8.596;2023-09-12T01:41:03;15.13;;;10.10;;
21661;SDS011;10992;48.170;8.596;2023-09-12T01:43:31;15.43;;;10.63;;
21661;SDS011;10992;48.170;8.596;2023-09-12T01:45:59;16.13;;;10.55;;
21661;SDS011;10992;48.170;8.596;2023-09-12T01:48:28;14.63;;;10.27;;
21661;SDS011;10992;48.170;8.596;2023-09-12T01:51:00;17.25;;;9.50;;
21661;SDS011;10992;48.170;8.596;2023-09-12T01:53:28;15.27;;;10.13;;
21661;SDS011;10992;48.170;8.596;2023-09-12T01:55:56;14.25;;;10.93;;
21661;SDS011;10992;48.170;8.596;2023-09-12T01:58:25;15.32;;;10.18;;
21661;SDS011;10992;48.170;8.596;2023-09-12T02:00:52;11.05;;;9.23;;
21661;SDS011;10992;48.170;8.596;2023-09-12T02:03:20;14.32;;;9.55;;
21661;SDS011;10992;48.170;8.596;2023-09-12T02:05:48;16.73;;;10.25;;
21661;SDS011;10992;48.170;8.596;2023-09-12T02:08:15;10.80;;;9.68;;
21661;SDS011;10992;48.170;8.596;2023-09-12T02:10:41;14.63;;;9.93;;
21661;SDS011;10992;48.170;8.596;2023-09-12T02:13:09;14.80;;;10.23;;
21661;SDS011;10992;48.170;8.596;2023-09-12T02:15:35;12.25;;;10.25;;
21661;SDS011;10992;48.170;8.596;2023-09-12T02:18:03;12.70;;;10.02;;
21661;SDS011;10992;48.170;8.596;2023-09-12T02:20:30;14.27;;;8.90;;
21661;SDS011;10992;48.170;8.596;2023-09-12T02:22:58;14.77;;;9.77;;
21661;SDS011;10992;48.170;8.596;2023-09-12T02:25:25;11.90;;;9.93;;
21661;SDS011;10992;48.170;8.596;2023-09-12T02:27:52;12.55;;;10.07;;
21661;SDS011;10992;48.170;8.596;2023-09-12T02:30:19;13.32;;;9.70;;
21661;SDS011;10992;48.170;8.596;2023-09-12T02:32:46;12.00;;;10.10;;
21661;SDS011;10992;48.170;8.596;2023-09-12T02:35:13;11.70;;;9.68;;
21661;SDS011;10992;48.170;8.596;2023-09-12T02:37:40;15.32;;;10.30;;
21661;SDS011;10992;48.170;8.596;2023-09-12T02:40:07;13.18;;;10.23;;
21661;SDS011;10992;48.170;8.596;2023-09-12T02:42:37;10.77;;;9.38;;
21661;SDS011;10992;48.170;8.596;2023-09-12T02:45:04;13.75;;;9.70;;
21661;SDS011;10992;48.170;8.596;2023-09-12T02:47:32;12.27;;;10.52;;
21661;SDS011;10992;48.170;8.596;2023-09-12T02:49:59;14.02;;;10.00;;
21661;SDS011;10992;48.170;8.596;2023-09-12T02:52:26;12.52;;;9.82;;
21661;SDS011;10992;48.170;8.596;2023-09-12T02:54:53;12.10;;;9.75;;
21661;SDS011;10992;48.170;8.596;2023-09-12T02:57:19;13.77;;;9.82;;
21661;SDS011;10992;48.170;8.596;2023-09-12T02:59:47;16.10;;;9.73;;
21661;SDS011;10992;48.170;8.596;2023-09-12T03:02:13;11.88;;;9.75;;
21661;SDS011;10992;48.170;8.596;2023-09-12T03:04:40;14.85;;;10.68;;
21661;SDS011;10992;48.170;8.596;2023-09-12T03:07:07;15.10;;;10.70;;
21661;SDS011;10992;48.170;8.596;2023-09-12T03:09:34;12.75;;;10.98;;
21661;SDS011;10992;48.170;8.596;2023-09-12T03:12:04;11.70;;;10.27;;
21661;SDS011;10992;48.170;8.596;2023-09-12T03:14:33;16.42;;;10.38;;
21661;SDS011;10992;48.170;8.596;2023-09-12T03:17:00;14.23;;;10.65;;
21661;SDS011;10992;48.170;8.596;2023-09-12T03:19:27;12.63;;;10.40;;
21661;SDS011;10992;48.170;8.596;2023-09-12T03:21:56;11.65;;;10.38;;
21661;SDS011;10992;48.170;8.596;2023-09-12T03:24:23;11.88;;;10.68;;
21661;SDS011;10992;48.170;8.596;2023-09-12T03:26:51;12.80;;;9.55;;
21661;SDS011;10992;48.170;8.596;2023-09-12T03:29:18;11.57;;;9.68;;
21661;SDS011;10992;48.170;8.596;2023-09-12T03:31:45;11.65;;;10.38;;
21661;SDS011;10992;48.170;8.596;2023-09-12T03:34:12;11.57;;;10.02;;
21661;SDS011;10992;48.170;8.596;2023-09-12T03:36:39;12.25;;;9.95;;
21661;SDS011;10992;48.170;8.596;2023-09-12T03:39:06;15.32;;;11.32;;
21661;SDS011;10992;48.170;8.596;2023-09-12T03:41:36;12.10;;;10.32;;
21661;SDS011;10992;48.170;8.596;2023-09-12T03:44:03;15.65;;;10.50;;
21661;SDS011;10992;48.170;8.596;2023-09-12T03:46:30;14.00;;;11.50;;
21661;SDS011;10992;48.170;8.596;2023-09-12T03:48:57;12.07;;;10.73;;
21661;SDS011;10992;48.170;8.596;2023-09-12T03:51:25;11.77;;;10.55;;
21661;SDS011;10992;48.170;8.596;2023-09-12T03:53:52;17.13;;;11.40;;
21661;SDS011;10992;48.170;8.596;2023-09-12T03:56:19;12.10;;;10.48;;
21661;SDS011;10992;48.170;8.596;2023-09-12T03:58:46;15.95;;;11.32;;
21661;SDS011;10992;48.170;8.596;2023-09-12T04:01:13;15.18;;;11.45;;
21661;SDS011;10992;48.170;8.596;2023-09-12T04:03:41;11.90;;;10.55;;
21661;SDS011;10992;48.170;8.596;2023-09-12T04:06:08;17.10;;;11.13;;
21661;SDS011;10992;48.170;8.596;2023-09-12T04:08:36;17.17;;;12.13;;
21661;SDS011;10992;48.170;8.596;2023-09-12T04:11:04;14.43;;;11.05;;
21661;SDS011;10992;48.170;8.596;2023-09-12T04:13:30;14.50;;;12.85;;
21661;SDS011;10992;48.170;8.596;2023-09-12T04:15:57;16.90;;;11.95;;
21661;SDS011;10992;48.170;8.596;2023-09-12T04:18:25;13.57;;;11.65;;
21661;SDS011;10992;48.170;8.596;2023-09-12T04:20:52;15.23;;;11.82;;
21661;SDS011;10992;48.170;8.596;2023-09-12T04:23:21;14.18;;;11.77;;
21661;SDS011;10992;48.170;8.596;2023-09-12T04:25:49;17.85;;;13.23;;
21661;SDS011;10992;48.170;8.596;2023-09-12T04:28:16;16.40;;;13.25;;
21661;SDS011;10992;48.170;8.596;2023-09-12T04:30:43;18.90;;;13.13;;
21661;SDS011;10992;48.170;8.596;2023-09-12T04:33:13;17.25;;;12.23;;
21661;SDS011;10992;48.170;8.596;2023-09-12T04:35:40;13.50;;;11.93;;
21661;SDS011;10992;48.170;8.596;2023-09-12T04:38:08;15.10;;;11.73;;
21661;SDS011;10992;48.170;8.596;2023-09-12T04:40:35;14.02;;;11.60;;
21661;SDS011;10992;48.170;8.596;2023-09-12T04:43:03;13.00;;;11.60;;
21661;SDS011;10992;48.170;8.596;2023-09-12T04:45:32;16.23;;;12.35;;
21661;SDS011;10992;48.170;8.596;2023-09-12T04:48:00;15.15;;;11.40;;
21661;SDS011;10992;48.170;8.596;2023-09-12T04:50:27;13.82;;;11.45;;
21661;SDS011;10992;48.170;8.596;2023-09-12T04:52:54;12.90;;;11.57;;
21661;SDS011;10992;48.170;8.596;2023-09-12T04:55:21;17.85;;;13.23;;
21661;SDS011;10992;48.170;8.596;2023-09-12T04:57:48;14.10;;;11.82;;
21661;SDS011;10992;48.170;8.596;2023-09-12T05:00:15;14.68;;;12.32;;
21661;SDS011;10992;48.170;8.596;2023-09-12T05:02:42;17.88;;;12.60;;
21661;SDS011;10992;48.170;8.596;2023-09-12T05:05:09;16.80;;;12.75;;
21661;SDS011;10992;48.170;8.596;2023-09-12T05:07:36;13.68;;;12.00;;
21661;SDS011;10992;48.170;8.596;2023-09-12T05:10:04;16.52;;;12.50;;
21661;SDS011;10992;48.170;8.596;2023-09-12T05:12:31;14.07;;;11.77;;
21661;SDS011;10992;48.170;8.596;2023-09-12T05:14:58;15.13;;;11.45;;
21661;SDS011;10992;48.170;8.596;2023-09-12T05:17:27;12.93;;;11.35;;
21661;SDS011;10992;48.170;8.596;2023-09-12T05:19:55;17.05;;;11.95;;
21661;SDS011;10992;48.170;8.596;2023-09-12T05:22:22;15.98;;;11.45;;
21661;SDS011;10992;48.170;8.596;2023-09-12T05:24:49;16.17;;;11.60;;
21661;SDS011;10992;48.170;8.596;2023-09-12T05:27:16;12.60;;;11.30;;
21661;SDS011;10992;48.170;8.596;2023-09-12T05:29:43;15.93;;;11.38;;
21661;SDS011;10992;48.170;8.596;2023-09-12T05:32:10;12.88;;;11.63;;
21661;SDS011;10992;48.170;8.596;2023-09-12T05:34:37;13.38;;;11.77;;
21661;SDS011;10992;48.170;8.596;2023-09-12T05:37:04;15.43;;;11.30;;
21661;SDS011;10992;48.170;8.596;2023-09-12T05:39:31;15.25;;;11.65;;
21661;SDS011;10992;48.170;8.596;2023-09-12T05:41:58;13.43;;;11.25;;
21661;SDS011;10992;48.170;8.596;2023-09-12T05:44:25;13.57;;;12.20;;
21661;SDS011;10992;48.170;8.596;2023-09-12T05:46:52;14.35;;;12.10;;
21661;SDS011;10992;48.170;8.596;2023-09-12T05:49:19;13.80;;;11.93;;
21661;SDS011;10992;48.170;8.596;2023-09-12T05:51:46;23.58;;;12.20;;
21661;SDS011;10992;48.170;8.596;2023-09-12T05:54:13;15.45;;;11.15;;
21661;SDS011;10992;48.170;8.596;2023-09-12T05:56:41;14.43;;;11.52;;
21661;SDS011;10992;48.170;8.596;2023-09-12T05:59:07;12.82;;;10.52;;
21661;SDS011;10992;48.170;8.596;2023-09-12T06:01:35;12.43;;;9.90;;
21661;SDS011;10992;48.170;8.596;2023-09-12T06:04:02;12.80;;;10.07;;
21661;SDS011;10992;48.170;8.596;2023-09-12T06:06:29;11.05;;;9.60;;
21661;SDS011;10992;48.170;8.596;2023-09-12T06:08:56;11.38;;;9.55;;
21661;SDS011;10992;48.170;8.596;2023-09-12T06:11:24;12.15;;;9.63;;
21661;SDS011;10992;48.170;8.596;2023-09-12T06:13:51;11.57;;;9.93;;
21661;SDS011;10992;48.170;8.596;2023-09-12T06:16:18;14.85;;;10.23;;
21661;SDS011;10992;48.170;8.596;2023-09-12T06:18:45;14.00;;;10.18;;
21661;SDS011;10992;48.170;8.596;2023-09-12T06:21:12;13.07;;;10.30;;
21661;SDS011;10992;48.170;8.596;2023-09-12T06:23:39;10.52;;;9.40;;
21661;SDS011;10992;48.170;8.596;2023-09-12T06:26:06;13.77;;;10.85;;
21661;SDS011;10992;48.170;8.596;2023-09-12T06:28:33;13.52;;;10.70;;
21661;SDS011;10992;48.170;8.596;2023-09-12T06:31:00;12.38;;;9.98;;
21661;SDS011;10992;48.170;8.596;2023-09-12T06:33:27;12.75;;;10.45;;
21661;SDS011;10992;48.170;8.596;2023-09-12T06:35:55;12.63;;;10.00;;
21661;SDS011;10992;48.170;8.596;2023-09-12T06:38:22;15.18;;;10.55;;
21661;SDS011;10992;48.170;8.596;2023-09-12T06:40:49;11.82;;;10.63;;
21661;SDS011;10992;48.170;8.596;2023-09-12T06:43:16;11.05;;;9.65;;
21661;SDS011;10992;48.170;8.596;2023-09-12T06:45:43;10.82;;;8.82;;
21661;SDS011;10992;48.170;8.596;2023-09-12T06:48:10;12.98;;;9.20;;
21661;SDS011;10992;48.170;8.596;2023-09-12T06:50:37;13.13;;;9.82;;
21661;SDS011;10992;48.170;8.596;2023-09-12T06:53:05;11.48;;;8.88;;
21661;SDS011;10992;48.170;8.596;2023-09-12T06:55:33;11.27;;;8.95;;
21661;SDS011;10992;48.170;8.596;2023-09-12T06:58:00;11.48;;;8.13;;
21661;SDS011;10992;48.170;8.596;2023-09-12T07:00:27;12.65;;;9.15;;
21661;SDS011;10992;48.170;8.596;2023-09-12T07:02:54;11.15;;;8.88;;
21661;SDS011;10992;48.170;8.596;2023-09-12T07:05:21;12.35;;;9.00;;
21661;SDS011;10992;48.170;8.596;2023-09-12T07:07:48;11.30;;;9.32;;
21661;SDS011;10992;48.170;8.596;2023-09-12T07:10:15;9.02;;;8.05;;
21661;SDS011;10992;48.170;8.596;2023-09-12T07:12:52;12.07;;;9.20;;
21661;SDS011;10992;48.170;8.596;2023-09-12T07:15:20;13.18;;;8.52;;
21661;SDS011;10992;48.170;8.596;2023-09-12T07:17:47;9.77;;;8.65;;
21661;SDS011;10992;48.170;8.596;2023-09-12T07:20:14;10.35;;;8.27;;
21661;SDS011;10992;48.170;8.596;2023-09-12T07:22:42;10.38;;;8.23;;
21661;SDS011;10992;48.170;8.596;2023-09-12T07:25:09;11.30;;;9.02;;
21661;SDS011;10992;48.170;8.596;2023-09-12T07:27:38;9.90;;;8.95;;
21661;SDS011;10992;48.170;8.596;2023-09-12T07:30:06;10.73;;;9.63;;
21661;SDS011;10992;48.170;8.596;2023-09-12T07:32:34;11.40;;;8.88;;
21661;SDS011;10992;48.170;8.596;2023-09-12T07:35:01;10.50;;;8.60;;
21661;SDS011;10992;48.170;8.596;2023-09-12T07:37:28;10.32;;;8.68;;
21661;SDS011;10992;48.170;8.596;2023-09-12T07:39:55;12.07;;;9.38;;
21661;SDS011;10992;48.170;8.596;2023-09-12T07:42:22;11.23;;;9.52;;
21661;SDS011;10992;48.170;8.596;2023-09-12T07:44:50;10.77;;;9.68;;
21661;SDS011;10992;48.170;8.596;2023-09-12T07:47:17;10.15;;;9.00;;
21661;SDS011;10992;48.170;8.596;2023-09-12T07:49:45;10.23;;;8.95;;
21661;SDS011;10992;48.170;8.596;2023-09-12T07:52:12;11.55;;;9.80;;
21661;SDS011;10992;48.170;8.596;2023-09-12T07:54:39;12.68;;;9.75;;
21661;SDS011;10992;48.170;8.596;2023-09-12T07:57:06;10.45;;;8.65;;
21661;SDS011;10992;48.170;8.596;2023-09-12T07:59:33;12.38;;;9.93;;
21661;SDS011;10992;48.170;8.596;2023-09-12T08:02:00;10.13;;;8.07;;
21661;SDS011;10992;48.170;8.596;2023-09-12T08:04:27;11.90;;;9.02;;
21661;SDS011;10992;48.170;8.596;2023-09-12T08:06:54;11.27;;;8.70;;
21661;SDS011;10992;48.170;8.596;2023-09-12T08:12:15;12.25;;;8.70;;
21661;SDS011;10992;48.170;8.596;2023-09-12T08:14:42;9.95;;;9.00;;
21661;SDS011;10992;48.170;8.596;2023-09-12T08:17:11;9.77;;;8.77;;
21661;SDS011;10992;48.170;8.596;2023-09-12T08:19:39;11.75;;;8.82;;
21661;SDS011;10992;48.170;8.596;2023-09-12T08:22:07;8.88;;;7.80;;
21661;SDS011;10992;48.170;8.596;2023-09-12T08:24:35;10.35;;;8.48;;
21661;SDS011;10992;48.170;8.596;2023-09-12T08:27:02;8.32;;;7.47;;
21661;SDS011;10992;48.170;8.596;2023-09-12T08:29:31;10.15;;;8.63;;
21661;SDS011;10992;48.170;8.596;2023-09-12T08:31:59;10.65;;;8.38;;
21661;SDS011;10992;48.170;8.596;2023-09-12T08:34:27;11.77;;;8.15;;
21661;SDS011;10992;48.170;8.596;2023-09-12T08:36:54;9.40;;;8.02;;
21661;SDS011;10992;48.170;8.596;2023-09-12T08:39:25;10.07;;;8.32;;
21661;SDS011;10992;48.170;8.596;2023-09-12T08:41:53;8.20;;;7.28;;
21661;SDS011;10992;48.170;8.596;2023-09-12T08:44:21;8.18;;;7.28;;
21661;SDS011;10992;48.170;8.596;2023-09-12T08:46:48;10.20;;;8.75;;
21661;SDS011;10992;48.170;8.596;2023-09-12T08:49:16;9.68;;;8.32;;
21661;SDS011;10992;48.170;8.596;2023-09-12T08:51:43;10.00;;;8.10;;
21661;SDS011;10992;48.170;8.596;2023-09-12T08:54:11;9.20;;;8.05;;
21661;SDS011;10992;48.170;8.596;2023-09-12T08:56:40;10.30;;;8.70;;
21661;SDS011;10992;48.170;8.596;2023-09-12T08:59:10;11.52;;;8.65;;
21661;SDS011;10992;48.170;8.596;2023-09-12T09:01:38;9.48;;;7.93;;
21661;SDS011;10992;48.170;8.596;2023-09-12T09:04:06;10.95;;;9.02;;
21661;SDS011;10992;48.170;8.596;2023-09-12T09:06:33;9.45;;;8.32;;
21661;SDS011;10992;48.170;8.596;2023-09-12T09:09:04;11.02;;;8.77;;
21661;SDS011;10992;48.170;8.596;2023-09-12T09:11:33;11.75;;;9.15;;
21661;SDS011;10992;48.170;8.596;2023-09-12T09:14:04;10.02;;;9.02;;
21661;SDS011;10992;48.170;8.596;2023-09-12T09:16:31;10.82;;;8.75;;
21661;SDS011;10992;48.170;8.596;2023-09-12T09:19:05;10.60;;;9.05;;
21661;SDS011;10992;48.170;8.596;2023-09-12T09:21:37;10.90;;;8.75;;
21661;SDS011;10992;48.170;8.596;2023-09-12T09:24:08;9.75;;;8.63;;
21661;SDS011;10992;48.170;8.596;2023-09-12T09:26:44;8.52;;;7.72;;
21661;SDS011;10992;48.170;8.596;2023-09-12T09:29:19;10.93;;;8.52;;
21661;SDS011;10992;48.170;8.596;2023-09-12T09:31:48;9.70;;;7.97;;
21661;SDS011;10992;48.170;8.596;2023-09-12T09:34:20;11.73;;;8.88;;
21661;SDS011;10992;48.170;8.596;2023-09-12T09:36:51;10.43;;;7.82;;
21661;SDS011;10992;48.170;8.596;2023-09-12T09:39:23;9.55;;;8.55;;
21661;SDS011;10992;48.170;8.596;2023-09-12T09:41:52;8.25;;;7.40;;
21661;SDS011;10992;48.170;8.596;2023-09-12T09:44:20;8.43;;;7.50;;
21661;SDS011;10992;48.170;8.596;2023-09-12T09:46:55;9.30;;;8.43;;
21661;SDS011;10992;48.170;8.596;2023-09-12T09:49:32;8.77;;;7.88;;
21661;SDS011;10992;48.170;8.596;2023-09-12T09:52:03;9.90;;;7.72;;
21661;SDS011;10992;48.170;8.596;2023-09-12T09:54:31;10.95;;;7.90;;
21661;SDS011;10992;48.170;8.596;2023-09-12T09:56:58;10.90;;;8.95;;
21661;SDS011;10992;48.170;8.596;2023-09-12T09:59:27;10.35;;;7.70;;
21661;SDS011;10992;48.170;8.596;2023-09-12T10:01:58;8.90;;;6.85;;
21661;SDS011;10992;48.170;8.596;2023-09-12T10:04:26;8.45;;;7.55;;
21661;SDS011;10992;48.170;8.596;2023-09-12T10:06:57;12.18;;;7.05;;
21661;SDS011;10992;48.170;8.596;2023-09-12T10:09:25;8.80;;;7.53;;
21661;SDS011;10992;48.170;8.596;2023-09-12T10:11:55;7.65;;;6.47;;
21661;SDS011;10992;48.170;8.596;2023-09-12T10:14:24;9.10;;;7.20;;
21661;SDS011;10992;48.170;8.596;2023-09-12T10:16:54;7.30;;;6.60;;
21661;SDS011;10992;48.170;8.596;2023-09-12T10:19:41;8.15;;;7.35;;
21661;SDS011;10992;48.170;8.596;2023-09-12T10:22:21;7.65;;;6.85;;
21661;SDS011;10992;48.170;8.596;2023-09-12T10:24:51;8.35;;;6.65;;
21661;SDS011;10992;48.170;8.596;2023-09-12T10:27:20;7.80;;;6.70;;
21661;SDS011;10992;48.170;8.596;2023-09-12T10:29:48;7.78;;;6.47;;
21661;SDS011;10992;48.170;8.596;2023-09-12T10:32:18;8.30;;;6.40;;
21661;SDS011;10992;48.170;8.596;2023-09-12T10:34:48;8.38;;;7.50;;
21661;SDS011;10992;48.170;8.596;2023-09-12T10:37:15;8.60;;;7.43;;
21661;SDS011;10992;48.170;8.596;2023-09-12T10:39:43;9.30;;;6.90;;
21661;SDS011;10992;48.170;8.596;2023-09-12T10:42:12;7.25;;;6.50;;
21661;SDS011;10992;48.170;8.596;2023-09-12T10:44:39;8.73;;;6.57;;
21661;SDS011;10992;48.170;8.596;2023-09-12T10:47:06;10.13;;;7.38;;
21661;SDS011;10992;48.170;8.596;2023-09-12T10:49:35;8.52;;;6.72;;
21661;SDS011;10992;48.170;8.596;2023-09-12T10:52:03;6.97;;;6.10;;
21661;SDS011;10992;48.170;8.596;2023-09-12T10:54:37;7.97;;;6.35;;
21661;SDS011;10992;48.170;8.596;2023-09-12T10:57:04;9.25;;;5.93;;
21661;SDS011;10992;48.170;8.596;2023-09-12T10:59:33;7.25;;;5.68;;
21661;SDS011;10992;48.170;8.596;2023-09-12T11:04:59;8.10;;;6.28;;
21661;SDS011;10992;48.170;8.596;2023-09-12T11:07:43;6.47;;;5.57;;
21661;SDS011;10992;48.170;8.596;2023-09-12T11:12:42;6.28;;;5.13;;
21661;SDS011;10992;48.170;8.596;2023-09-12T11:15:10;5.82;;;5.22;;
21661;SDS011;10992;48.170;8.596;2023-09-12T11:17:37;5.70;;;5.18;;
21661;SDS011;10992;48.170;8.596;2023-09-12T11:20:09;6.10;;;5.57;;
21661;SDS011;10992;48.170;8.596;2023-09-12T11:22:41;5.47;;;4.97;;
21661;SDS011;10992;48.170;8.596;2023-09-12T11:30:27;9.20;;;5.93;;
21661;SDS011;10992;48.170;8.596;2023-09-12T11:32:58;7.82;;;5.63;;
21661;SDS011;10992;48.170;8.596;2023-09-12T11:35:27;7.18;;;5.32;;
21661;SDS011;10992;48.170;8.596;2023-09-12T11:37:58;6.70;;;5.90;;
21661;SDS011;10992;48.170;8.596;2023-09-12T11:40:41;6.50;;;5.90;;
21661;SDS011;10992;48.170;8.596;2023-09-12T11:43:20;6.40;;;5.82;;
21661;SDS011;10992;48.170;8.596;2023-09-12T11:45:48;7.80;;;5.70;;
21661;SDS011;10992;48.170;8.596;2023-09-12T11:48:16;6.43;;;5.78;;
21661;SDS011;10992;48.170;8.596;2023-09-12T11:50:42;6.20;;;5.60;;
21661;SDS011;10992;48.170;8.596;2023-09-12T11:53:20;6.38;;;5.53;;
21661;SDS011;10992;48.170;8.596;2023-09-12T11:55:58;6.40;;;5.80;;
21661;SDS011;10992;48.170;8.596;2023-09-12T11:58:27;8.73;;;6.15;;
21661;SDS011;10992;48.170;8.596;2023-09-12T12:00:55;6.68;;;4.93;;
21661;SDS011;10992;48.170;8.596;2023-09-12T12:03:24;5.65;;;5.10;;
21661;SDS011;10992;48.170;8.596;2023-09-12T12:05:53;6.00;;;5.22;;
21661;SDS011;10992;48.170;8.596;2023-09-12T12:08:21;7.80;;;5.57;;
21661;SDS011;10992;48.170;8.596;2023-09-12T12:10:52;7.30;;;4.82;;
21661;SDS011;10992;48.170;8.596;2023-09-12T12:13:20;8.80;;;5.60;;
21661;SDS011;10992;48.170;8.596;2023-09-12T12:15:48;6.63;;;5.97;;
21661;SDS011;10992;48.170;8.596;2023-09-12T12:18:15;5.93;;;5.00;;
21661;SDS011;10992;48.170;8.596;2023-09-12T12:20:42;6.00;;;5.40;;
21661;SDS011;10992;48.170;8.596;2023-09-12T12:23:09;6.03;;;5.40;;
21661;SDS011;10992;48.170;8.596;2023-09-12T12:25:37;7.07;;;5.13;;
21661;SDS011;10992;48.170;8.596;2023-09-12T12:28:04;6.63;;;5.05;;
21661;SDS011;10992;48.170;8.596;2023-09-12T12:30:32;7.20;;;4.93;;
21661;SDS011;10992;48.170;8.596;2023-09-12T12:33:02;5.47;;;4.45;;
21661;SDS011;10992;48.170;8.596;2023-09-12T12:36:03;5.85;;;5.22;;
21661;SDS011;10992;48.170;8.596;2023-09-12T12:38:35;7.15;;;5.30;;
21661;SDS011;10992;48.170;8.596;2023-09-12T12:41:13;7.28;;;5.38;;
21661;SDS011;10992;48.170;8.596;2023-09-12T12:43:42;6.18;;;5.47;;
21661;SDS011;10992;48.170;8.596;2023-09-12T12:46:10;8.88;;;5.10;;
21661;SDS011;10992;48.170;8.596;2023-09-12T12:48:42;6.15;;;5.53;;
21661;SDS011;10992;48.170;8.596;2023-09-12T12:51:16;5.65;;;5.03;;
21661;SDS011;10992;48.170;8.596;2023-09-12T12:54:03;6.45;;;4.72;;
21661;SDS011;10992;48.170;8.596;2023-09-12T12:56:32;6.03;;;4.80;;
21661;SDS011;10992;48.170;8.596;2023-09-12T12:59:00;6.97;;;5.60;;
21661;SDS011;10992;48.170;8.596;2023-09-12T13:01:33;5.22;;;4.72;;
21661;SDS011;10992;48.170;8.596;2023-09-12T13:04:05;5.30;;;4.55;;
21661;SDS011;10992;48.170;8.596;2023-09-12T13:06:34;6.28;;;4.90;;
21661;SDS011;10992;48.170;8.596;2023-09-12T13:09:05;6.88;;;4.80;;
21661;SDS011;10992;48.170;8.596;2023-09-12T13:11:33;5.38;;;4.30;;
21661;SDS011;10992;48.170;8.596;2023-09-12T13:14:01;5.90;;;4.15;;
21661;SDS011;10992;48.170;8.596;2023-09-12T13:16:35;7.57;;;4.47;;
21661;SDS011;10992;48.170;8.596;2023-09-12T13:19:03;6.82;;;4.95;;
21661;SDS011;10992;48.170;8.596;2023-09-12T13:21:30;5.38;;;4.80;;
21661;SDS011;10992;48.170;8.596;2023-09-12T13:23:59;5.88;;;4.45;;
21661;SDS011;10992;48.170;8.596;2023-09-12T13:26:28;6.13;;;4.82;;
21661;SDS011;10992;48.170;8.596;2023-09-12T13:28:55;5.03;;;4.40;;
21661;SDS011;10992;48.170;8.596;2023-09-12T13:31:23;5.65;;;4.72;;
21661;SDS011;10992;48.170;8.596;2023-09-12T13:33:50;5.47;;;4.90;;
21661;SDS011;10992;48.170;8.596;2023-09-12T13:36:17;4.97;;;4.55;;
21661;SDS011;10992;48.170;8.596;2023-09-12T13:38:44;6.82;;;4.75;;
21661;SDS011;10992;48.170;8.596;2023-09-12T13:41:14;5.32;;;4.00;;
21661;SDS011;10992;48.170;8.596;2023-09-12T13:43:41;5.55;;;4.65;;
21661;SDS011;10992;48.170;8.596;2023-09-12T13:46:08;4.93;;;4.15;;
21661;SDS011;10992;48.170;8.596;2023-09-12T13:48:37;5.22;;;4.63;;
21661;SDS011;10992;48.170;8.596;2023-09-12T13:51:04;6.10;;;4.75;;
21661;SDS011;10992;48.170;8.596;2023-09-12T13:53:31;5.78;;;4.50;;
21661;SDS011;10992;48.170;8.596;2023-09-12T13:55:58;5.22;;;4.68;;
21661;SDS011;10992;48.170;8.596;2023-09-12T13:58:41;5.07;;;4.57;;
21661;SDS011;10992;48.170;8.596;2023-09-12T14:01:12;9.82;;;6.28;;
21661;SDS011;10992;48.170;8.596;2023-09-12T14:03:53;7.00;;;6.40;;
21661;SDS011;10992;48.170;8.596;2023-09-12T14:06:21;9.10;;;6.53;;
21661;SDS011;10992;48.170;8.596;2023-09-12T14:08:48;6.53;;;5.78;;
21661;SDS011;10992;48.170;8.596;2023-09-12T14:11:15;12.13;;;6.10;;
21661;SDS011;10992;48.170;8.596;2023-09-12T14:13:57;11.07;;;5.85;;
21661;SDS011;10992;48.170;8.596;2023-09-12T14:16:40;9.43;;;6.25;;
21661;SDS011;10992;48.170;8.596;2023-09-12T14:19:08;6.63;;;5.32;;
21661;SDS011;10992;48.170;8.596;2023-09-12T14:21:37;14.48;;;5.85;;
21661;SDS011;10992;48.170;8.596;2023-09-12T14:24:05;10.32;;;6.13;;
21661;SDS011;10992;48.170;8.596;2023-09-12T14:26:32;11.38;;;7.25;;
21661;SDS011;10992;48.170;8.596;2023-09-12T14:28:59;10.18;;;6.00;;
21661;SDS011;10992;48.170;8.596;2023-09-12T14:31:28;10.85;;;6.55;;
21661;SDS011;10992;48.170;8.596;2023-09-12T14:33:55;9.10;;;5.88;;
21661;SDS011;10992;48.170;8.596;2023-09-12T14:36:24;7.20;;;5.38;;
21661;SDS011;10992;48.170;8.596;2023-09-12T14:38:51;7.32;;;5.30;;
21661;SDS011;10992;48.170;8.596;2023-09-12T14:41:18;8.23;;;5.63;;
21661;SDS011;10992;48.170;8.596;2023-09-12T14:43:45;7.53;;;5.45;;
21661;SDS011;10992;48.170;8.596;2023-09-12T14:46:12;8.30;;;5.85;;
21661;SDS011;10992;48.170;8.596;2023-09-12T14:48:39;10.70;;;5.93;;
21661;SDS011;10992;48.170;8.596;2023-09-12T14:51:18;6.68;;;5.43;;
21661;SDS011;10992;48.170;8.596;2023-09-12T14:53:56;9.35;;;5.80;;
21661;SDS011;10992;48.170;8.596;2023-09-12T14:56:23;10.13;;;6.35;;
21661;SDS011;10992;48.170;8.596;2023-09-12T14:58:50;7.65;;;6.85;;
21661;SDS011;10992;48.170;8.596;2023-09-12T15:01:17;9.00;;;7.28;;